Time;durP1;ratioP1;P1;durP2;ratioP2;P2;SDS_P1;SDS_P2;PMS_P1;PMS_P2;Temp;Humidity;BMP_temperature;BMP_pressure;BME280_temperature;BME280_humidity;BME280_pressure;Samples;Min_cycle;Max_cycle;Signal;HPM_P1;HPM_P2
2021/09/03 00:00:14;;;;;;;15.40;8.68;;;18.70;88.70;;;;;;5036691;28;20115;-88
2021/09/03 00:02:40;;;;;;;15.38;8.85;;;18.60;88.70;;;;;;5036503;28;20104;-88
2021/09/03 00:05:09;;;;;;;11.90;7.78;;;18.60;88.80;;;;;;5019789;28;20067;-88
2021/09/03 00:07:35;;;;;;;14.30;9.13;;;18.60;88.90;;;;;;5036647;28;20021;-88
2021/09/03 00:10:02;;;;;;;13.55;8.30;;;18.50;88.90;;;;;;5036628;28;20029;-89
2021/09/03 00:12:28;;;;;;;12.90;8.10;;;18.50;89.20;;;;;;5020891;28;20087;-89
2021/09/03 00:14:53;;;;;;;17.20;8.88;;;18.50;89.10;;;;;;5020726;28;20037;-88
2021/09/03 00:17:19;;;;;;;14.90;9.80;;;18.50;89.20;;;;;;5019919;28;20029;-88
2021/09/03 00:19:44;;;;;;;13.25;9.73;;;18.40;89.30;;;;;;5020078;28;20037;-88
2021/09/03 00:22:10;;;;;;;17.73;9.57;;;18.40;89.40;;;;;;5003487;28;20048;-88
2021/09/03 00:24:36;;;;;;;12.95;8.52;;;18.40;89.40;;;;;;5020395;28;20129;-89
2021/09/03 00:27:01;;;;;;;13.63;8.27;;;18.30;89.50;;;;;;5004045;28;20025;-88
2021/09/03 00:29:27;;;;;;;13.18;8.82;;;18.30;89.60;;;;;;5019830;28;20036;-89
2021/09/03 00:31:53;;;;;;;12.13;8.57;;;18.30;89.60;;;;;;5019941;28;20033;-89
2021/09/03 00:34:18;;;;;;;14.07;8.52;;;18.30;89.70;;;;;;5019984;28;20029;-88
2021/09/03 00:36:45;;;;;;;13.93;9.00;;;18.30;89.80;;;;;;5019933;28;20052;-88
2021/09/03 00:39:10;;;;;;;14.63;8.48;;;18.20;90.00;;;;;;5052973;28;20120;-88
2021/09/03 00:41:36;;;;;;;12.63;8.35;;;18.20;89.90;;;;;;5019631;28;20455;-87
2021/09/03 00:44:02;;;;;;;12.27;8.02;;;18.20;90.00;;;;;;5019670;28;20029;-87
2021/09/03 00:46:28;;;;;;;13.45;8.70;;;18.20;90.10;;;;;;5035860;28;20029;-88
2021/09/03 00:48:54;;;;;;;13.73;9.20;;;18.20;90.10;;;;;;5035794;28;20109;-87
2021/09/03 00:51:20;;;;;;;15.65;9.73;;;18.10;90.10;;;;;;5035836;28;20021;-88
2021/09/03 00:53:46;;;;;;;15.80;9.18;;;18.10;90.10;;;;;;5019458;28;20082;-88
2021/09/03 00:56:12;;;;;;;14.82;9.20;;;18.10;90.20;;;;;;5019393;28;20131;-88
2021/09/03 00:58:37;;;;;;;12.20;8.38;;;18.00;90.20;;;;;;5019234;28;20037;-88
2021/09/03 01:01:04;;;;;;;14.00;9.52;;;18.00;90.20;;;;;;5019402;28;20036;-88
2021/09/03 01:03:29;;;;;;;14.52;9.13;;;18.00;90.30;;;;;;5016240;28;20125;-88
2021/09/03 01:05:58;;;;;;;13.15;9.20;;;18.00;90.30;;;;;;5034926;28;20018;-88
2021/09/03 01:08:24;;;;;;;13.90;9.13;;;18.00;90.40;;;;;;5019485;28;20029;-88
2021/09/03 01:10:50;;;;;;;14.73;9.50;;;18.00;90.40;;;;;;5035984;28;20475;-88
2021/09/03 01:13:15;;;;;;;13.35;9.30;;;17.90;90.50;;;;;;5019268;28;20029;-88
2021/09/03 01:15:41;;;;;;;12.80;9.05;;;17.90;90.50;;;;;;5006912;28;20025;-88
2021/09/03 01:18:07;;;;;;;14.95;10.13;;;17.90;90.50;;;;;;5007056;28;20032;-88
2021/09/03 01:20:32;;;;;;;14.63;10.02;;;17.80;90.50;;;;;;5007105;28;20032;-88
2021/09/03 01:22:58;;;;;;;13.77;9.73;;;17.90;90.60;;;;;;5006905;28;20099;-88
2021/09/03 01:25:24;;;;;;;14.10;9.65;;;17.80;90.60;;;;;;5039727;28;20032;-88
2021/09/03 01:27:49;;;;;;;15.23;9.90;;;17.80;90.60;;;;;;5023394;28;20053;-89
2021/09/03 01:30:16;;;;;;;16.55;10.50;;;17.70;90.70;;;;;;5023229;28;20056;-88
2021/09/03 01:32:43;;;;;;;14.18;9.80;;;17.80;90.70;;;;;;5022989;28;20195;-87
2021/09/03 01:35:09;;;;;;;14.35;9.65;;;17.70;90.70;;;;;;5039534;28;20021;-88
2021/09/03 01:37:35;;;;;;;14.90;10.30;;;17.70;90.80;;;;;;5039707;28;20033;-88
2021/09/03 01:40:02;;;;;;;15.63;9.77;;;17.70;90.80;;;;;;5039652;28;20570;-88
2021/09/03 01:42:28;;;;;;;16.63;10.88;;;17.70;90.80;;;;;;5039234;28;20470;-87
2021/09/03 01:44:53;;;;;;;17.00;11.30;;;17.70;90.90;;;;;;5022865;28;20036;-88
2021/09/03 01:47:19;;;;;;;13.80;10.45;;;17.60;90.90;;;;;;5023160;28;20048;-88
2021/09/03 01:49:45;;;;;;;16.17;11.15;;;17.60;90.90;;;;;;5039346;28;20471;-88
2021/09/03 01:52:10;;;;;;;16.33;10.73;;;17.60;90.90;;;;;;5023409;28;20483;-88
2021/09/03 01:54:36;;;;;;;16.02;10.65;;;17.60;91.00;;;;;;5040175;28;20117;-88
2021/09/03 01:57:02;;;;;;;17.73;10.50;;;17.50;91.00;;;;;;5022884;28;20036;-88
2021/09/03 01:59:27;;;;;;;16.23;11.43;;;17.50;91.00;;;;;;5022995;28;20029;-88
2021/09/03 02:01:53;;;;;;;17.85;10.70;;;17.50;91.10;;;;;;5022470;28;20475;-88
2021/09/03 02:04:19;;;;;;;14.80;10.55;;;17.50;91.10;;;;;;5022802;28;20497;-88
2021/09/03 02:06:45;;;;;;;17.98;11.38;;;17.50;91.10;;;;;;5022609;28;20428;-88
2021/09/03 02:09:10;;;;;;;17.38;11.85;;;17.40;91.10;;;;;;5022617;28;20032;-88
2021/09/03 02:11:36;;;;;;;16.67;11.88;;;17.40;91.10;;;;;;5022812;28;20375;-88
2021/09/03 02:14:02;;;;;;;18.15;11.27;;;17.40;91.20;;;;;;5022524;28;20036;-88
2021/09/03 02:16:28;;;;;;;18.77;11.85;;;17.40;91.20;;;;;;5022630;28;20037;-88
2021/09/03 02:18:54;;;;;;;16.75;11.43;;;17.40;91.20;;;;;;5022498;28;20079;-88
2021/09/03 02:21:19;;;;;;;24.30;12.30;;;17.40;91.20;;;;;;5022064;28;20125;-88
2021/09/03 02:23:45;;;;;;;15.38;11.25;;;17.30;91.20;;;;;;5038577;28;20124;-88
2021/09/03 02:26:11;;;;;;;18.20;11.43;;;17.30;91.30;;;;;;5021754;28;20409;-88
2021/09/03 02:28:37;;;;;;;16.25;11.77;;;17.30;91.40;;;;;;5038870;28;20021;-88
2021/09/03 02:31:02;;;;;;;19.77;11.73;;;17.30;91.40;;;;;;5039482;28;20492;-88
2021/09/03 02:33:28;;;;;;;18.42;11.30;;;17.30;91.40;;;;;;5038741;28;20386;-88
2021/09/03 02:35:54;;;;;;;18.77;11.82;;;17.20;91.40;;;;;;5022429;28;20029;-88
2021/09/03 02:38:20;;;;;;;16.35;11.85;;;17.20;91.40;;;;;;5022357;28;20123;-89
2021/09/03 02:40:45;;;;;;;17.63;11.77;;;17.20;91.40;;;;;;5022106;28;20033;-88
2021/09/03 02:43:11;;;;;;;19.63;12.45;;;17.20;91.50;;;;;;5002263;28;20088;-89
2021/09/03 02:45:37;;;;;;;17.55;11.90;;;17.20;91.80;;;;;;5022029;28;20046;-88
2021/09/03 02:48:03;;;;;;;17.13;12.27;;;17.20;91.50;;;;;;5022203;28;20025;-88
2021/09/03 02:50:29;;;;;;;18.83;11.60;;;17.10;91.60;;;;;;5022139;28;20032;-88
2021/09/03 02:52:56;;;;;;;17.50;11.43;;;17.10;91.60;;;;;;5022136;28;20450;-89
2021/09/03 02:55:29;;;;;;;18.10;12.52;;;17.10;91.60;;;;;;5038634;28;20014;-88
2021/09/03 02:57:56;;;;;;;13.90;11.55;;;17.10;91.70;;;;;;5022344;28;20021;-88
2021/09/03 03:00:22;;;;;;;17.40;11.85;;;17.10;91.70;;;;;;5021951;28;20067;-88
2021/09/03 03:02:47;;;;;;;17.98;12.65;;;17.00;91.80;;;;;;5037936;28;20027;-88
2021/09/03 03:05:13;;;;;;;19.48;12.50;;;17.00;91.80;;;;;;5038092;28;20024;-88
2021/09/03 03:07:39;;;;;;;16.30;11.80;;;17.00;91.80;;;;;;5021509;28;20027;-88
2021/09/03 03:10:06;;;;;;;18.35;11.80;;;17.00;91.80;;;;;;5038139;28;20036;-88
2021/09/03 03:12:33;;;;;;;20.55;13.23;;;17.00;91.90;;;;;;5021732;28;20025;-88
2021/09/03 03:14:59;;;;;;;17.15;11.95;;;16.90;91.90;;;;;;5021512;28;20043;-88
2021/09/03 03:17:26;;;;;;;20.08;12.70;;;16.90;91.90;;;;;;5021450;28;20083;-88
2021/09/03 03:19:51;;;;;;;16.42;12.18;;;16.90;91.90;;;;;;5021336;28;20025;-88
2021/09/03 03:22:17;;;;;;;19.80;12.98;;;16.90;91.90;;;;;;5020854;28;20085;-88
2021/09/03 03:24:43;;;;;;;18.17;12.13;;;16.90;92.00;;;;;;5017898;28;20052;-88
2021/09/03 03:27:09;;;;;;;19.20;12.88;;;16.90;92.00;;;;;;5037765;28;20017;-88
2021/09/03 03:29:35;;;;;;;20.27;12.73;;;16.80;92.00;;;;;;5021192;28;20517;-88
2021/09/03 03:32:00;;;;;;;17.05;12.88;;;16.80;92.00;;;;;;5020974;28;20025;-88
2021/09/03 03:34:26;;;;;;;16.92;12.90;;;16.80;92.10;;;;;;5021262;28;20056;-88
2021/09/03 03:36:52;;;;;;;16.38;12.85;;;16.80;92.10;;;;;;5020554;28;20171;-88
2021/09/03 03:39:18;;;;;;;18.88;12.93;;;16.70;92.10;;;;;;5037470;28;20025;-88
2021/09/03 03:41:43;;;;;;;16.60;12.85;;;16.70;92.10;;;;;;5019740;28;20048;-89
2021/09/03 03:44:09;;;;;;;20.27;13.40;;;16.70;92.10;;;;;;5021040;28;20086;-89
2021/09/03 03:46:34;;;;;;;18.98;13.23;;;16.70;92.10;;;;;;5021530;28;20428;-91
2021/09/03 03:49:00;;;;;;;19.77;13.63;;;16.70;92.10;;;;;;5021365;28;20026;-90
2021/09/03 03:51:26;;;;;;;20.83;13.77;;;16.70;92.20;;;;;;5021175;28;20025;-90
2021/09/03 03:53:52;;;;;;;19.77;13.35;;;16.60;92.20;;;;;;5037466;28;20037;-91
2021/09/03 03:56:17;;;;;;;20.05;13.13;;;16.60;92.10;;;;;;5021086;28;20123;-90
2021/09/03 03:58:44;;;;;;;18.23;12.60;;;16.60;92.20;;;;;;5021132;28;20494;-91
2021/09/03 04:01:10;;;;;;;18.73;12.73;;;16.50;92.20;;;;;;5037800;28;20021;-90
2021/09/03 04:03:36;;;;;;;19.83;14.40;;;16.50;92.30;;;;;;5051562;28;20112;-91
2021/09/03 04:06:04;;;;;;;18.20;13.77;;;16.50;92.20;;;;;;5040572;28;20105;-91
2021/09/03 04:08:30;;;;;;;22.25;14.65;;;16.50;92.30;;;;;;5040709;28;20027;-91
2021/09/03 04:10:56;;;;;;;19.98;14.52;;;16.50;92.30;;;;;;5040465;28;20029;-90
2021/09/03 04:13:22;;;;;;;20.15;13.68;;;16.50;92.30;;;;;;5040462;28;20169;-91
2021/09/03 04:15:47;;;;;;;19.80;14.05;;;16.40;92.30;;;;;;5040727;28;20039;-91
2021/09/03 04:18:13;;;;;;;21.38;14.52;;;16.40;92.40;;;;;;5040373;28;20543;-90
2021/09/03 04:23:10;;;;;;;20.10;14.20;;;16.40;92.30;;;;;;5051572;28;20045;-84
2021/09/03 04:25:36;;;;;;;18.83;13.55;;;16.40;92.40;;;;;;5018199;28;20040;-84
2021/09/03 04:28:03;;;;;;;20.73;14.30;;;16.30;92.40;;;;;;5051833;28;20128;-84
2021/09/03 04:30:28;;;;;;;21.05;14.63;;;16.30;92.40;;;;;;5018146;28;20029;-84
2021/09/03 04:32:54;;;;;;;19.90;14.90;;;16.30;92.50;;;;;;5034373;28;20370;-84
2021/09/03 04:35:20;;;;;;;20.58;14.57;;;16.30;92.50;;;;;;5045649;28;20059;-83
2021/09/03 04:37:50;;;;;;;22.25;14.55;;;16.30;92.50;;;;;;5047471;28;20079;-84
2021/09/03 04:40:18;;;;;;;20.42;15.02;;;16.30;92.50;;;;;;5035103;28;20053;-85
2021/09/03 04:42:44;;;;;;;20.27;15.00;;;16.20;92.50;;;;;;5055108;28;20074;-84
2021/09/03 04:45:11;;;;;;;17.75;13.88;;;16.20;92.50;;;;;;5038693;28;20033;-86
2021/09/03 04:47:37;;;;;;;20.27;14.95;;;16.20;92.50;;;;;;5073364;28;20033;-84
2021/09/03 04:50:04;;;;;;;21.27;15.55;;;16.20;92.50;;;;;;5036795;28;20500;-84
2021/09/03 04:52:30;;;;;;;20.63;14.82;;;16.20;92.60;;;;;;5048468;28;20048;-84
2021/09/03 04:54:56;;;;;;;23.48;16.35;;;16.10;92.60;;;;;;5002424;28;20059;-84
2021/09/03 04:57:21;;;;;;;19.02;14.63;;;16.10;92.60;;;;;;5036545;28;20017;-83
2021/09/03 04:59:47;;;;;;;22.75;16.30;;;16.10;92.70;;;;;;5034812;28;20025;-83
2021/09/03 05:02:12;;;;;;;21.40;15.60;;;16.10;92.70;;;;;;5018040;28;20041;-85
2021/09/03 05:04:38;;;;;;;18.75;15.15;;;16.10;92.80;;;;;;5026048;28;20057;-84
2021/09/03 05:07:04;;;;;;;21.48;15.60;;;16.10;92.80;;;;;;5024399;28;20048;-84
2021/09/03 05:09:29;;;;;;;22.52;15.77;;;16.10;92.90;;;;;;5035400;28;20029;-84
2021/09/03 05:11:56;;;;;;;20.88;16.17;;;16.00;92.90;;;;;;5019223;28;20495;-84
2021/09/03 05:14:22;;;;;;;24.48;16.25;;;16.00;92.90;;;;;;5038881;28;20032;-84
2021/09/03 05:16:48;;;;;;;23.58;16.10;;;16.00;92.90;;;;;;5073220;28;20368;-85
2021/09/03 05:19:13;;;;;;;26.58;16.48;;;16.00;92.90;;;;;;5024086;28;20430;-84
2021/09/03 05:21:39;;;;;;;24.25;17.20;;;16.00;93.00;;;;;;5019136;28;20370;-84
2021/09/03 05:24:05;;;;;;;22.42;16.67;;;16.00;93.00;;;;;;5018985;28;20033;-85
2021/09/03 05:26:31;;;;;;;23.25;15.55;;;16.00;93.00;;;;;;5002074;28;20025;-82
2021/09/03 05:28:57;;;;;;;22.48;16.42;;;16.00;93.10;;;;;;5035230;28;20029;-83
2021/09/03 05:31:22;;;;;;;25.27;16.67;;;16.00;93.10;;;;;;5019269;28;20033;-84
2021/09/03 05:33:48;;;;;;;21.98;15.75;;;15.90;93.20;;;;;;5019600;28;20470;-84
2021/09/03 05:36:14;;;;;;;21.38;16.00;;;16.00;93.20;;;;;;5054640;28;20041;-84
2021/09/03 05:38:40;;;;;;;21.75;16.50;;;15.90;93.20;;;;;;5046643;28;20028;-84
2021/09/03 05:41:06;;;;;;;23.63;17.25;;;16.00;93.20;;;;;;5052425;28;20013;-85
2021/09/03 05:43:31;;;;;;;22.73;16.40;;;15.90;93.20;;;;;;5039892;28;20029;-83
2021/09/03 05:45:57;;;;;;;23.73;16.45;;;15.90;93.20;;;;;;5027097;28;20033;-83
2021/09/03 05:48:23;;;;;;;27.02;17.20;;;16.00;93.30;;;;;;5056128;28;20487;-84
2021/09/03 05:50:49;;;;;;;23.00;15.93;;;15.90;93.30;;;;;;5043537;28;20037;-87
2021/09/03 05:53:15;;;;;;;22.55;16.80;;;15.90;93.30;;;;;;5059447;28;20040;-85
2021/09/03 05:55:41;;;;;;;22.75;16.33;;;15.90;93.40;;;;;;5042392;28;20021;-83
2021/09/03 05:58:06;;;;;;;23.38;15.68;;;16.00;93.50;;;;;;5002542;28;20029;-84
2021/09/03 06:00:32;;;;;;;23.02;16.13;;;16.00;93.50;;;;;;5020246;28;20021;-84
2021/09/03 06:02:59;;;;;;;24.75;17.38;;;16.00;93.50;;;;;;5033631;28;20037;-88
2021/09/03 06:05:25;;;;;;;20.45;15.85;;;16.00;93.50;;;;;;5022291;28;20037;-85
2021/09/03 06:07:50;;;;;;;20.40;14.85;;;16.00;93.50;;;;;;5035482;28;20037;-85
2021/09/03 06:10:16;;;;;;;22.40;15.50;;;16.00;93.60;;;;;;5037970;28;20029;-84
2021/09/03 06:12:42;;;;;;;23.73;15.48;;;16.10;93.60;;;;;;5032174;28;20040;-84
2021/09/03 06:15:09;;;;;;;18.83;14.98;;;16.10;93.70;;;;;;5020063;28;20025;-86
2021/09/03 06:17:35;;;;;;;20.48;14.93;;;16.10;93.70;;;;;;5008605;28;20032;-84
2021/09/03 06:20:05;;;;;;;21.38;15.38;;;16.10;93.70;;;;;;5003367;28;20101;-85
2021/09/03 06:22:31;;;;;;;22.05;16.08;;;16.20;93.70;;;;;;5037960;28;20119;-85
2021/09/03 06:24:56;;;;;;;23.33;15.75;;;16.10;93.70;;;;;;5053057;28;20037;-84
2021/09/03 06:27:22;;;;;;;20.27;14.63;;;16.10;93.70;;;;;;5049233;28;20018;-83
2021/09/03 06:29:48;;;;;;;20.95;14.00;;;16.20;93.70;;;;;;5037726;28;20032;-85
2021/09/03 06:32:17;;;;;;;20.80;13.98;;;16.20;93.70;;;;;;5016755;28;20033;-84
2021/09/03 06:34:46;;;;;;;18.65;13.57;;;16.20;93.70;;;;;;5018822;28;20024;-84
2021/09/03 06:37:13;;;;;;;20.85;14.32;;;16.30;93.70;;;;;;5053317;28;20025;-84
2021/09/03 06:39:39;;;;;;;20.80;14.18;;;16.30;93.70;;;;;;5050172;28;20024;-86
2021/09/03 06:42:07;;;;;;;21.00;14.25;;;16.30;93.80;;;;;;5049958;28;20029;-91
2021/09/03 06:44:33;;;;;;;20.52;14.50;;;16.30;93.70;;;;;;5049194;28;20120;-86
2021/09/03 06:46:59;;;;;;;19.10;13.48;;;16.30;93.70;;;;;;5036310;28;20025;-86
2021/09/03 06:49:25;;;;;;;18.60;13.73;;;16.40;93.70;;;;;;5021255;28;20017;-86
2021/09/03 06:51:51;;;;;;;19.67;13.98;;;16.40;93.80;;;;;;5021320;28;20037;-90
2021/09/03 06:54:18;;;;;;;20.23;14.15;;;16.50;93.80;;;;;;5033056;28;20044;-86
2021/09/03 06:56:44;;;;;;;19.17;12.82;;;16.50;93.80;;;;;;5038026;28;20078;-87
2021/09/03 06:59:10;;;;;;;18.08;12.05;;;16.50;93.80;;;;;;5023452;28;20055;-86
2021/09/03 07:01:35;;;;;;;16.77;12.07;;;16.50;93.80;;;;;;5030005;28;20529;-86
2021/09/03 07:04:01;;;;;;;19.05;12.75;;;16.50;93.80;;;;;;5017250;28;20029;-88
2021/09/03 07:06:27;;;;;;;21.80;12.27;;;16.60;93.80;;;;;;5015224;28;20032;-86
2021/09/03 07:08:53;;;;;;;19.13;12.40;;;16.60;93.80;;;;;;5007717;28;20033;-88
2021/09/03 07:11:19;;;;;;;17.30;12.30;;;16.60;93.80;;;;;;5032694;28;20481;-86
2021/09/03 07:13:45;;;;;;;18.33;12.60;;;16.70;93.80;;;;;;5029183;28;20496;-88
2021/09/03 07:16:10;;;;;;;15.27;11.27;;;16.70;93.90;;;;;;5011047;28;20029;-87
2021/09/03 07:18:36;;;;;;;18.08;13.10;;;16.80;93.90;;;;;;5020200;28;20028;-86
2021/09/03 07:21:02;;;;;;;15.60;11.95;;;16.80;93.90;;;;;;5019163;28;20033;-86
2021/09/03 07:23:28;;;;;;;14.63;11.32;;;16.80;93.90;;;;;;5034152;28;20041;-86
2021/09/03 07:25:53;;;;;;;16.20;10.80;;;16.80;93.90;;;;;;4996272;28;20032;-86
2021/09/03 07:28:19;;;;;;;14.70;10.98;;;16.90;94.00;;;;;;5037444;28;20100;-86
2021/09/03 07:30:45;;;;;;;17.58;11.00;;;16.90;94.00;;;;;;5037845;28;20048;-86
2021/09/03 07:33:10;;;;;;;12.88;9.60;;;17.00;94.00;;;;;;5012259;28;20473;-86
2021/09/03 07:35:36;;;;;;;15.50;11.43;;;17.10;94.00;;;;;;5041211;28;20381;-85
2021/09/03 07:38:03;;;;;;;17.83;11.77;;;17.10;94.10;;;;;;5040827;28;20436;-86
2021/09/03 07:40:29;;;;;;;15.13;11.50;;;17.10;94.30;;;;;;5063192;28;20021;-86
2021/09/03 07:42:55;;;;;;;15.27;10.25;;;17.20;94.70;;;;;;5055895;28;20048;-86
2021/09/03 07:45:21;;;;;;;14.25;10.18;;;17.30;94.80;;;;;;5029209;28;20039;-86
2021/09/03 07:47:47;;;;;;;15.15;11.10;;;17.30;94.80;;;;;;5052892;28;20045;-89
2021/09/03 07:50:17;;;;;;;16.80;11.02;;;17.30;94.90;;;;;;5035811;28;20021;-87
2021/09/03 07:52:43;;;;;;;15.30;11.07;;;17.40;94.90;;;;;;5062579;28;20025;-87
2021/09/03 07:55:08;;;;;;;20.08;10.32;;;17.40;95.00;;;;;;5026248;28;20095;-85
2021/09/03 07:57:34;;;;;;;13.57;9.65;;;17.50;95.10;;;;;;5015685;28;20507;-86
2021/09/03 08:00:00;;;;;;;13.40;9.27;;;17.50;95.20;;;;;;5032570;28;20370;-86
2021/09/03 08:02:25;;;;;;;14.85;10.45;;;17.60;95.20;;;;;;5036814;28;20120;-86
2021/09/03 08:04:53;;;;;;;13.27;9.45;;;17.70;95.30;;;;;;5020108;28;20465;-87
2021/09/03 08:07:19;;;;;;;15.07;10.52;;;17.80;95.40;;;;;;5028210;28;20029;-86
2021/09/03 08:09:44;;;;;;;14.80;10.65;;;17.80;95.30;;;;;;5031021;28;20029;-86
2021/09/03 08:12:11;;;;;;;19.52;10.98;;;17.90;95.20;;;;;;5035885;28;20385;-86
2021/09/03 08:14:37;;;;;;;15.80;10.27;;;17.90;95.20;;;;;;5045259;28;20029;-85
2021/09/03 08:17:03;;;;;;;15.38;10.48;;;18.00;95.00;;;;;;5012685;28;20090;-85
2021/09/03 08:19:29;;;;;;;16.85;12.15;;;18.10;95.00;;;;;;5052293;28;20035;-88
2021/09/03 08:21:55;;;;;;;14.18;10.05;;;18.20;95.00;;;;;;5035132;28;20494;-86
2021/09/03 08:24:21;;;;;;;14.20;9.20;;;18.20;94.90;;;;;;5043359;28;20377;-86
2021/09/03 08:26:47;;;;;;;12.75;9.18;;;18.30;95.10;;;;;;5036544;28;20033;-88
2021/09/03 08:29:12;;;;;;;13.93;9.60;;;18.40;94.70;;;;;;5015971;28;20025;-85
2021/09/03 08:31:38;;;;;;;12.15;8.98;;;18.50;94.70;;;;;;5027276;28;20067;-86
2021/09/03 08:34:05;;;;;;;15.32;10.70;;;18.50;94.70;;;;;;5003989;28;20495;-85
2021/09/03 08:36:32;;;;;;;14.68;10.20;;;18.60;94.60;;;;;;5034674;28;20389;-85
2021/09/03 08:38:57;;;;;;;12.32;9.00;;;18.70;94.50;;;;;;5053441;28;20029;-86
2021/09/03 08:41:24;;;;;;;11.20;8.60;;;18.70;94.40;;;;;;5034937;28;20039;-86
2021/09/03 08:43:53;;;;;;;14.27;9.35;;;18.80;94.40;;;;;;5019377;28;20750;-85
2021/09/03 08:46:20;;;;;;;13.43;9.07;;;18.90;94.50;;;;;;5033854;28;20483;-86
2021/09/03 08:48:46;;;;;;;11.57;8.38;;;19.00;94.50;;;;;;5019120;28;20021;-86
2021/09/03 08:51:12;;;;;;;12.70;8.43;;;19.00;94.40;;;;;;5020833;28;20410;-85
2021/09/03 08:53:38;;;;;;;13.70;9.05;;;19.20;94.40;;;;;;5020486;28;20442;-85
2021/09/03 08:56:04;;;;;;;11.90;8.40;;;19.20;94.40;;;;;;5003249;28;20033;-86
2021/09/03 08:58:30;;;;;;;13.35;8.13;;;19.30;94.30;;;;;;5018820;28;20025;-85
2021/09/03 09:01:13;;;;;;;14.63;8.90;;;19.40;94.20;;;;;;5036236;28;20354;-86
2021/09/03 09:03:41;;;;;;;11.57;7.35;;;19.50;94.20;;;;;;5035392;28;20025;-86
2021/09/03 09:06:08;;;;;;;11.57;7.70;;;19.60;94.20;;;;;;5021765;28;20866;-85
2021/09/03 09:08:37;;;;;;;9.23;7.35;;;19.70;94.20;;;;;;5017267;28;20029;-85
2021/09/03 09:11:15;;;;;;;10.43;7.43;;;19.70;94.10;;;;;;5035629;28;20120;-89
2021/09/03 09:13:43;;;;;;;10.02;7.60;;;19.80;94.10;;;;;;5052802;28;20402;-85
2021/09/03 09:16:12;;;;;;;12.32;8.13;;;19.90;94.10;;;;;;5035388;28;20380;-85
2021/09/03 09:18:55;;;;;;;10.98;7.65;;;20.00;94.10;;;;;;5047432;28;20028;-86
2021/09/03 09:21:38;;;;;;;10.48;7.47;;;20.10;94.00;;;;;;5051473;28;20069;-84
2021/09/03 09:24:06;;;;;;;11.85;7.38;;;20.20;94.00;;;;;;5074374;28;20017;-85
2021/09/03 09:26:52;;;;;;;10.07;7.43;;;20.30;93.90;;;;;;5051651;28;20022;-84
2021/09/03 09:29:31;;;;;;;11.60;7.38;;;20.40;93.80;;;;;;5049080;28;20108;-85
2021/09/03 09:32:04;;;;;;;10.40;6.65;;;20.40;93.70;;;;;;5061184;28;20066;-86
2021/09/03 09:34:35;;;;;;;9.52;6.18;;;20.50;93.70;;;;;;5067186;28;20064;-84
2021/09/03 09:37:16;;;;;;;8.20;5.97;;;20.60;93.60;;;;;;5077622;28;20028;-85
2021/09/03 09:39:46;;;;;;;10.50;5.75;;;20.70;93.60;;;;;;5042565;28;20017;-85
2021/09/03 09:42:21;;;;;;;9.00;6.68;;;20.80;93.60;;;;;;5057884;28;20380;-85
2021/09/03 09:44:47;;;;;;;9.23;6.30;;;20.90;93.50;;;;;;5039503;28;20025;-85
2021/09/03 09:47:13;;;;;;;9.82;6.90;;;20.90;93.40;;;;;;5018490;28;20396;-85
2021/09/03 09:49:39;;;;;;;10.68;7.22;;;21.00;93.20;;;;;;5051675;28;20082;-84
2021/09/03 09:52:06;;;;;;;10.80;7.32;;;21.00;93.00;;;;;;5018659;28;20521;-84
2021/09/03 09:54:33;;;;;;;10.98;7.43;;;21.10;92.70;;;;;;5038259;28;20457;-83
2021/09/03 09:57:01;;;;;;;10.88;8.02;;;21.20;92.50;;;;;;5023030;28;20124;-84
2021/09/03 09:59:28;;;;;;;11.52;7.82;;;21.30;92.40;;;;;;5021956;28;20026;-85
2021/09/03 10:01:56;;;;;;;14.13;8.20;;;21.30;92.10;;;;;;5042984;28;20025;-84
2021/09/03 10:04:24;;;;;;;9.07;6.43;;;21.40;91.90;;;;;;5037023;28;20029;-83
2021/09/03 10:06:52;;;;;;;8.95;6.30;;;21.40;91.90;;;;;;5054855;28;20036;-83
2021/09/03 10:09:22;;;;;;;10.18;6.78;;;21.50;92.00;;;;;;5033359;28;20057;-84
2021/09/03 10:11:53;;;;;;;11.07;6.70;;;21.60;91.80;;;;;;5046502;28;20098;-83
2021/09/03 10:14:26;;;;;;;10.80;7.65;;;21.70;91.70;;;;;;5033987;28;20029;-84
2021/09/03 10:16:53;;;;;;;11.27;8.68;;;21.70;91.50;;;;;;5038266;28;20030;-92
2021/09/03 10:19:32;;;;;;;11.07;8.15;;;21.80;91.10;;;;;;5051154;28;20037;-95
2021/09/03 10:22:13;;;;;;;10.57;7.80;;;21.80;91.00;;;;;;5041165;28;20131;-93
2021/09/03 10:24:42;;;;;;;12.18;7.15;;;21.90;91.10;;;;;;5059519;28;20100;-94
2021/09/03 10:27:09;;;;;;;12.05;6.95;;;22.00;90.90;;;;;;5051718;28;20032;-94
2021/09/03 10:29:39;;;;;;;10.68;6.13;;;22.10;91.00;;;;;;5037625;28;20040;-95
2021/09/03 10:34:43;;;;;;;10.38;6.65;;;22.20;90.90;;;;;;5058599;28;20469;-95
2021/09/03 10:37:17;;;;;;;9.27;6.07;;;22.30;90.70;;;;;;5041625;28;20143;-94
2021/09/03 10:39:55;;;;;;;11.02;7.65;;;22.40;90.80;;;;;;5030437;28;20025;-94
2021/09/03 10:45:02;;;;;;;11.30;6.72;;;22.50;90.20;;;;;;5047165;28;20072;-94
2021/09/03 10:47:39;;;;;;;10.82;6.75;;;22.50;90.30;;;;;;5057822;28;20032;-95
2021/09/03 10:50:17;;;;;;;9.68;6.93;;;22.60;90.30;;;;;;5045707;28;20029;-94
2021/09/03 10:53:02;;;;;;;9.82;6.53;;;22.70;90.30;;;;;;5042090;28;20025;-95
2021/09/03 10:55:58;;;;;;;10.40;6.68;;;22.70;90.10;;;;;;5042017;28;20028;-94
2021/09/03 10:58:44;;;;;;;8.82;6.18;;;22.80;90.10;;;;;;5063547;28;20017;-96
2021/09/03 11:01:09;;;;;;;9.93;6.40;;;22.90;90.20;;;;;;5043790;28;20029;-94
2021/09/03 11:03:45;;;;;;;10.00;6.18;;;23.00;90.20;;;;;;5063805;28;20072;-94
2021/09/03 11:06:23;;;;;;;10.02;6.40;;;23.10;90.10;;;;;;5061473;28;20067;-93
2021/09/03 11:08:51;;;;;;;10.75;6.70;;;23.10;89.90;;;;;;5050703;28;20032;-86
2021/09/03 11:11:53;;;;;;;9.75;6.90;;;23.20;89.80;;;;;;5053550;28;20022;-95
2021/09/03 11:14:30;;;;;;;11.02;7.18;;;23.20;89.80;;;;;;5053846;28;20030;-91
2021/09/03 11:17:01;;;;;;;13.15;8.45;;;23.30;89.60;;;;;;5036686;28;20067;-85
2021/09/03 11:19:30;;;;;;;10.57;6.80;;;23.40;88.40;;;;;;5022685;28;20071;-85
2021/09/03 11:21:56;;;;;;;9.77;6.25;;;23.50;88.10;;;;;;5050514;28;20140;-85
2021/09/03 11:24:24;;;;;;;8.52;6.18;;;23.50;88.40;;;;;;5040329;28;20052;-85
2021/09/03 11:26:51;;;;;;;9.52;6.50;;;23.60;88.40;;;;;;5046759;28;20025;-85
2021/09/03 11:29:23;;;;;;;8.88;6.53;;;23.70;88.40;;;;;;5051960;28;20025;-87
2021/09/03 11:32:05;;;;;;;9.13;7.10;;;23.80;88.30;;;;;;5061062;28;20020;-85
2021/09/03 11:34:46;;;;;;;9.75;6.05;;;23.90;88.20;;;;;;5047705;28;20052;-84
2021/09/03 11:37:19;;;;;;;;;;;23.90;87.90;;;;;;5068181;28;20021;-85
2021/09/03 11:39:44;;;;;;;8.88;6.47;;;24.00;88.10;;;;;;5061212;28;19912;-85
2021/09/03 11:42:24;;;;;;;8.60;6.55;;;24.10;88.00;;;;;;5038795;28;20501;-85
2021/09/03 11:44:56;;;;;;;11.32;7.80;;;24.20;87.50;;;;;;5036028;28;20095;-84
2021/09/03 11:47:27;;;;;;;9.10;6.57;;;24.20;86.30;;;;;;5051970;28;20021;-85
2021/09/03 11:49:53;;;;;;;12.65;7.75;;;24.30;86.20;;;;;;5053233;28;20024;-85
2021/09/03 11:52:28;;;;;;;10.98;6.97;;;24.30;85.90;;;;;;5035017;28;20116;-86
2021/09/03 11:54:54;;;;;;;10.15;7.03;;;24.40;85.90;;;;;;5018221;28;20029;-85
2021/09/03 11:57:21;;;;;;;8.73;6.65;;;24.50;85.80;;;;;;5035564;28;20359;-85
2021/09/03 12:00:13;;;;;;;10.07;6.45;;;24.50;85.20;;;;;;5019022;28;20102;-85
2021/09/03 12:02:41;;;;;;;9.75;6.82;;;24.60;85.50;;;;;;5032354;28;20036;-85
2021/09/03 12:05:09;;;;;;;8.98;6.35;;;24.80;84.90;;;;;;5048785;28;20381;-85
2021/09/03 12:07:35;;;;;;;8.68;6.03;;;24.80;84.40;;;;;;5063716;28;20029;-85
2021/09/03 12:10:00;;;;;;;11.68;6.60;;;24.90;85.00;;;;;;5013750;28;20033;-85
2021/09/03 12:12:29;;;;;;;8.95;6.13;;;24.90;84.50;;;;;;5032486;28;20033;-84
2021/09/03 12:15:01;;;;;;;9.25;6.13;;;25.00;84.60;;;;;;5051057;28;20021;-85
2021/09/03 12:17:40;;;;;;;10.18;6.55;;;25.10;84.00;;;;;;5043266;28;20044;-85
2021/09/03 12:20:17;;;;;;;10.50;6.43;;;25.20;84.00;;;;;;5036089;28;20075;-87
2021/09/03 12:22:51;;;;;;;11.18;6.72;;;25.30;83.60;;;;;;5022729;28;20440;-85
2021/09/03 12:25:17;;;;;;;9.73;6.35;;;25.30;83.40;;;;;;5035814;28;20048;-86
2021/09/03 12:27:42;;;;;;;10.48;6.82;;;25.40;83.30;;;;;;5023046;28;20168;-85
2021/09/03 12:30:10;;;;;;;8.90;6.68;;;25.40;83.20;;;;;;5025326;28;20115;-85
2021/09/03 12:32:36;;;;;;;9.15;6.15;;;25.50;82.90;;;;;;5045580;28;20056;-85
2021/09/03 12:35:01;;;;;;;9.88;6.32;;;25.50;82.20;;;;;;5013076;28;20068;-85
2021/09/03 12:37:27;;;;;;;10.35;6.75;;;25.60;81.50;;;;;;5019849;28;20076;-83
2021/09/03 12:40:03;;;;;;;8.75;6.38;;;25.60;81.50;;;;;;5015024;28;20034;-85
2021/09/03 12:42:39;;;;;;;11.88;6.63;;;25.70;81.20;;;;;;5011655;28;20033;-84